Registrering Status Plassering
LN-NAZ Operativ Ski - ENSI 

Søk
Nye sertifikater

Sertifikater

Kontakt informasjon

Follo flyklubb.
Postboks 226, N-1401 Ski
Epost: post@follo-flyklubb.no

Tel: 64 87 13 82
Du er her: Hovedside

Hovedside

 

Follo flyklubb er en flyklubb med primærbase på Ski flyplass, og sekundærbase (vinterbase) på Rakkestad flyplass. Disse websidene er ment som en informasjonskanal til flyklubbens medlemmer, og andre som måtte være interessert i Follo flyklubbs virksomhet. Har du kommentarer eller bidrag du ønsker å dele med flyklubben, send oss en melding her.

Har noen av flyklubbens medlemmer forslag til turer, aktiviteter eller kurs- og infokvelder dere ønsker at vi deltar på eller avholder, så gi beskjed til styret via epost.

 

Før flyturen: Ta en sjekk på datoer i sertifikatene dine. Husk at det er forskjell på gyldighetsdato for PPL-sertifikatet og klasserettighet, som f.eks. SEP. Her er noen nyttige spørsmål, og litt om rettigheter her.

ENGM 261720Z 04007KT 9999 SCT040 BKN049 13/08 Q1037 NOSIG
ENTO 261720Z 01006KT 9999 FEW021 BKN080 12/12 Q1035
ENRY 261720Z 06010KT 9999 FEW030 BKN059 14/11 Q1036
ENSN 090850Z 20010G22KT 150V240 CAVOK 07/03 Q1000
ENCN 261720Z 05010KT 9999 VCSH FEW004 BKN010 13/12 Q1033
ENZV 261720Z 10009KT 070V130 9999 FEW040 BKN080 16/09 Q1031 TEMPO 13015G25KT
ENFL 261720Z 11011KT CAVOK 17/08 Q1032
ENFG 011450Z 05008KT 9999 -SHRA BKN045 10/02 Q1015
ENNO 261650Z 27004KT 230V290 9999 FEW003 SCT016 BKN024 12/11 Q1036
 

Bruk av myWebLog

Follo flyklubb benytter nå myWebLog, se nyheter for mer informasjon
Logging av flyvning skal foretas ”umiddelbart” etter at flyvning har funnet sted. Da har systemet oppdatert medlemmets konto i myWebLog basert på de opplysningene som er skrevet inn i loggen. Flyets data blir også oppdatert, slik at den neste som skal ut å fly kan få en indikasjon på flyets tilstand, hvor det befinner seg og hvor lenge det er til neste service.